createdAt,value
2018-04-13T00:02:47.372Z,8.52
2018-04-13T00:07:48.323Z,8.44
2018-04-13T00:12:49.287Z,8.60
2018-04-13T00:17:56.467Z,8.54
2018-04-13T00:22:57.419Z,8.52
2018-04-13T00:27:58.381Z,8.46
2018-04-13T00:33:05.357Z,8.42
2018-04-13T00:38:06.326Z,8.54
2018-04-13T00:43:07.302Z,8.72
2018-04-13T00:48:08.280Z,8.57
2018-04-13T00:53:21.563Z,8.30
2018-04-13T00:58:22.528Z,8.34
2018-04-13T01:03:23.511Z,8.27
2018-04-13T01:08:24.484Z,8.50
2018-04-13T01:13:25.416Z,8.73
2018-04-13T01:18:26.420Z,8.53
2018-04-13T01:23:27.377Z,8.74
2018-04-13T01:28:28.356Z,8.49
2018-04-13T01:33:35.486Z,8.51
2018-04-13T01:38:42.584Z,8.55
2018-04-13T01:43:43.581Z,8.76
2018-04-13T01:48:44.521Z,8.80
2018-04-13T01:53:51.618Z,8.60
2018-04-13T01:58:52.570Z,8.88
2018-04-13T02:03:59.691Z,8.75
2018-04-13T02:09:06.811Z,8.64
2018-04-13T02:14:13.903Z,8.85
2018-04-13T02:19:14.890Z,8.75
2018-04-13T02:24:15.862Z,8.86
2018-04-13T02:29:16.840Z,8.83
2018-04-13T02:34:24.098Z,8.69
2018-04-13T02:39:24.962Z,8.79
2018-04-13T02:44:25.929Z,8.65
2018-04-13T02:49:32.956Z,8.69
2018-04-13T02:54:33.927Z,8.93
2018-04-13T02:59:40.910Z,8.70
2018-04-13T03:04:41.874Z,8.74
2018-04-13T03:09:42.823Z,8.82
2018-04-13T03:14:43.791Z,9.06
2018-04-13T03:19:50.970Z,8.80
2018-04-13T03:24:51.947Z,8.69
2018-04-13T03:29:52.911Z,8.79
2018-04-13T03:34:59.892Z,8.93
2018-04-13T03:40:00.863Z,8.86
2018-04-13T03:45:01.835Z,9.02
2018-04-13T03:50:02.814Z,8.98
2018-04-13T03:55:09.944Z,8.99
2018-04-13T04:00:10.906Z,8.81
2018-04-13T04:05:17.934Z,8.97
2018-04-13T04:10:18.884Z,8.81
2018-04-13T04:15:19.828Z,8.75
2018-04-13T04:20:33.125Z,8.74
2018-04-13T04:25:52.332Z,8.89
2018-04-13T04:30:53.283Z,8.82
2018-04-13T04:35:54.237Z,8.91
2018-04-13T04:40:55.190Z,8.98
2018-04-13T04:46:02.331Z,8.93
2018-04-13T04:51:03.267Z,9.13
2018-04-13T04:56:04.279Z,8.83
2018-04-13T05:01:05.250Z,9.04
2018-04-13T05:06:06.189Z,8.90
2018-04-13T05:11:07.133Z,9.14
2018-04-13T05:16:20.344Z,9.16
2018-04-13T05:21:27.463Z,9.09
2018-04-13T05:26:28.439Z,9.04
2018-04-13T05:31:29.392Z,8.98
2018-04-13T05:36:30.343Z,8.94
2018-04-13T05:41:31.324Z,9.08
2018-04-13T05:46:32.268Z,8.86
2018-04-13T05:51:33.219Z,9.18
2018-04-13T05:56:46.201Z,9.38
2018-04-13T06:01:47.150Z,9.39
2018-04-13T06:06:54.202Z,9.13
2018-04-13T06:11:55.173Z,9.34
2018-04-13T06:17:02.160Z,9.18
2018-04-13T06:22:03.160Z,9.17
2018-04-13T06:27:04.133Z,9.43
2018-04-13T06:32:11.256Z,9.63
2018-04-13T06:37:12.211Z,9.55
2018-04-13T06:42:19.154Z,9.39
2018-04-13T06:47:26.127Z,9.66
2018-04-13T06:52:27.137Z,9.54
2018-04-13T06:57:34.213Z,9.84
2018-04-13T07:02:35.201Z,9.80
2018-04-13T07:07:36.179Z,9.91
2018-04-13T07:12:37.141Z,9.79
2018-04-13T07:17:38.098Z,9.76
2018-04-13T07:22:52.176Z,9.98
2018-04-13T07:27:59.232Z,9.67
2018-04-13T07:33:00.210Z,9.50
2018-04-13T07:38:01.159Z,9.88
2018-04-13T07:43:02.124Z,10.30
2018-04-13T07:48:03.095Z,10.54
2018-04-13T07:53:04.084Z,10.81
2018-04-13T07:58:11.025Z,11.01
2018-04-13T08:03:18.141Z,10.78
2018-04-13T08:08:19.337Z,11.28
2018-04-13T08:13:20.085Z,11.68
2018-04-13T08:18:21.068Z,11.19
2018-04-13T08:23:28.183Z,11.39
2018-04-13T08:28:29.132Z,11.28
2018-04-13T08:33:30.110Z,11.66
2018-04-13T08:38:31.068Z,11.92
2018-04-13T08:43:32.061Z,12.06
2018-04-13T08:48:39.155Z,12.46
2018-04-13T08:53:40.063Z,13.04
2018-04-13T08:58:47.176Z,13.19
2018-04-13T09:03:54.374Z,13.08
2018-04-13T09:08:55.332Z,13.11
2018-04-13T09:13:56.308Z,13.05
2018-04-13T09:18:57.253Z,13.12
2018-04-13T09:23:58.247Z,12.80
2018-04-13T09:28:59.186Z,13.25
2018-04-13T09:34:06.260Z,12.97
2018-04-13T09:39:13.164Z,12.73
2018-04-13T09:44:20.198Z,12.78
2018-04-13T09:49:21.164Z,12.88
2018-04-13T09:54:22.127Z,12.77
2018-04-13T09:59:23.087Z,12.45
2018-04-13T10:04:30.171Z,12.49
2018-04-13T10:09:37.322Z,12.64
2018-04-13T10:14:44.524Z,12.97
2018-04-13T10:19:45.493Z,12.72
2018-04-13T10:24:46.510Z,12.83
2018-04-13T10:29:53.521Z,12.98
2018-04-13T10:34:54.477Z,13.20
2018-04-13T10:39:55.767Z,13.54
2018-04-13T10:44:56.732Z,13.89
2018-04-13T10:50:03.929Z,13.64
2018-04-13T10:55:11.036Z,13.77
2018-04-13T11:00:11.994Z,13.73
2018-04-13T11:05:12.956Z,13.50
2018-04-13T11:10:20.036Z,13.30
2018-04-13T11:15:20.981Z,13.00
2018-04-13T11:20:21.953Z,12.99
2018-04-13T11:25:29.226Z,12.95
2018-04-13T11:30:36.196Z,13.07
2018-04-13T11:35:37.166Z,12.83
2018-04-13T11:40:44.250Z,13.20
2018-04-13T11:45:45.235Z,13.59
2018-04-13T11:50:46.669Z,13.43
2018-04-13T11:55:47.651Z,13.98
2018-04-13T12:00:48.814Z,13.68
2018-04-13T12:05:56.093Z,13.71
2018-04-13T12:10:57.036Z,13.01
2018-04-13T12:15:58.015Z,12.61
2018-04-13T12:20:58.963Z,12.25
2018-04-13T12:26:00.026Z,12.94
2018-04-13T12:31:01.020Z,12.33
2018-04-13T12:36:02.038Z,12.48
2018-04-13T12:41:03.022Z,12.64
2018-04-13T12:46:04.027Z,12.51
2018-04-13T12:51:05.061Z,12.19
2018-04-13T12:56:06.098Z,11.89
2018-04-13T13:01:07.048Z,12.32
2018-04-13T13:06:08.024Z,12.27
2018-04-13T13:11:09.033Z,12.28
2018-04-13T13:16:10.043Z,11.53
2018-04-13T13:21:11.090Z,11.41
2018-04-13T13:26:12.092Z,11.03
2018-04-13T13:31:13.102Z,11.62
2018-04-13T13:36:14.121Z,11.65
2018-04-13T13:41:15.129Z,11.88
2018-04-13T13:46:16.134Z,11.95
2018-04-13T13:51:17.131Z,11.60
2018-04-13T13:56:18.162Z,11.68
2018-04-13T14:01:19.167Z,11.66
2018-04-13T14:06:20.147Z,11.91
2018-04-13T14:11:21.130Z,12.23
2018-04-13T14:16:22.125Z,12.36
2018-04-13T14:21:23.176Z,11.89
2018-04-13T14:26:24.223Z,11.77
2018-04-13T14:31:25.203Z,11.60
2018-04-13T14:36:26.216Z,11.70
2018-04-13T14:41:27.218Z,11.74
2018-04-13T14:46:28.259Z,11.76
2018-04-13T14:51:29.265Z,11.55
2018-04-13T14:56:30.259Z,11.44
2018-04-13T15:01:31.235Z,11.37
2018-04-13T15:06:32.269Z,11.40
2018-04-13T15:11:33.231Z,11.43
2018-04-13T15:16:34.231Z,11.32
2018-04-13T15:21:35.211Z,11.30
2018-04-13T15:26:36.251Z,11.37
2018-04-13T15:31:37.237Z,11.25
2018-04-13T15:36:38.273Z,10.68
2018-04-13T15:41:39.248Z,10.99
2018-04-13T15:46:40.267Z,10.69
2018-04-13T15:51:41.282Z,10.91
2018-04-13T15:56:42.288Z,10.87
2018-04-13T16:01:43.275Z,10.98
2018-04-13T16:06:44.308Z,10.67
2018-04-13T16:11:45.278Z,10.71
2018-04-13T16:16:46.292Z,10.27
2018-04-13T16:21:47.279Z,10.26
2018-04-13T16:26:48.311Z,10.83
2018-04-13T16:31:49.308Z,10.63
2018-04-13T16:36:50.316Z,10.37
2018-04-13T16:41:51.298Z,10.43
2018-04-13T16:46:52.320Z,10.60
2018-04-13T16:51:53.335Z,10.14
2018-04-13T16:56:54.355Z,9.94
2018-04-13T17:01:55.355Z,10.16
2018-04-13T17:06:56.366Z,10.32
2018-04-13T17:11:57.333Z,9.92
2018-04-13T17:16:58.366Z,9.99
2018-04-13T17:21:59.344Z,9.86
2018-04-13T17:27:00.354Z,9.84
2018-04-13T17:32:01.395Z,9.82
2018-04-13T17:37:02.375Z,9.78
2018-04-13T17:42:03.406Z,9.47
2018-04-13T17:47:04.437Z,9.40
2018-04-13T17:52:05.472Z,9.35
2018-04-13T17:57:06.489Z,9.47
2018-04-13T18:02:07.544Z,9.19
2018-04-13T18:07:08.550Z,9.52
2018-04-13T18:12:09.562Z,9.43
2018-04-13T18:17:10.553Z,9.34
2018-04-13T18:22:11.575Z,9.16
2018-04-13T18:27:12.608Z,8.94
2018-04-13T18:32:13.603Z,9.30
2018-04-13T18:37:14.595Z,9.09
2018-04-13T18:42:15.598Z,8.87
2018-04-13T18:47:16.640Z,9.08
2018-04-13T18:52:17.694Z,9.04
2018-04-13T18:57:18.737Z,8.81
2018-04-13T19:02:19.747Z,8.92
2018-04-13T19:07:20.737Z,8.77
2018-04-13T19:12:21.769Z,8.63
2018-04-13T19:17:22.817Z,8.99
2018-04-13T19:22:23.862Z,8.59
2018-04-13T19:27:24.921Z,8.55
2018-04-13T19:32:25.955Z,8.85
2018-04-13T19:37:27.062Z,9.11
2018-04-13T19:42:28.075Z,8.51
2018-04-13T19:47:29.125Z,8.78
2018-04-13T19:52:30.144Z,8.88
2018-04-13T19:57:31.203Z,8.93
2018-04-13T20:02:32.238Z,8.94
2018-04-13T20:07:33.327Z,8.83
2018-04-13T20:12:34.351Z,8.85
2018-04-13T20:17:35.401Z,8.70
2018-04-13T20:22:36.380Z,8.68
2018-04-13T20:27:37.455Z,8.88
2018-04-13T20:32:38.467Z,8.87
2018-04-13T20:37:39.519Z,8.97
2018-04-13T20:42:40.516Z,9.03
2018-04-13T20:47:41.536Z,8.97
2018-04-13T20:52:42.528Z,8.51
2018-04-13T20:57:43.577Z,8.82
2018-04-13T21:02:44.606Z,9.01
2018-04-13T21:07:45.618Z,8.88
2018-04-13T21:12:46.645Z,8.85
2018-04-13T21:17:47.632Z,9.06
2018-04-13T21:22:48.626Z,8.90
2018-04-13T21:27:49.639Z,8.39
2018-04-13T21:32:50.645Z,8.71
2018-04-13T21:37:51.623Z,8.83
2018-04-13T21:42:52.617Z,8.99
2018-04-13T21:47:53.597Z,9.03
2018-04-13T21:52:54.605Z,9.14
2018-04-13T21:57:55.613Z,8.72
2018-04-13T22:02:56.562Z,9.08
2018-04-13T22:07:57.601Z,9.22
2018-04-13T22:13:11.269Z,9.05
2018-04-13T22:18:13.305Z,9.03
2018-04-13T22:23:14.300Z,8.91
2018-04-13T22:28:15.333Z,8.90
2018-04-13T22:33:16.321Z,8.60
2018-04-13T22:38:17.308Z,8.56
2018-04-13T22:43:18.280Z,8.60
2018-04-13T22:48:19.264Z,8.54
2018-04-13T22:53:20.225Z,8.57
2018-04-13T22:58:21.243Z,8.43
2018-04-13T23:03:22.225Z,8.35
2018-04-13T23:08:23.305Z,8.67
2018-04-13T23:13:24.303Z,8.71
2018-04-13T23:18:25.284Z,8.47
2018-04-13T23:23:26.265Z,8.21
2018-04-13T23:28:27.272Z,8.69
2018-04-13T23:33:28.244Z,8.69
2018-04-13T23:38:29.237Z,8.81
2018-04-13T23:43:30.195Z,8.53
2018-04-13T23:48:31.167Z,8.78
2018-04-13T23:53:32.125Z,8.99
2018-04-13T23:58:33.100Z,8.67
